Time;durP1;ratioP1;P1;durP2;ratioP2;P2;SDS_P1;SDS_P2;PMS_P1;PMS_P2;Temp;Humidity;BMP_temperature;BMP_pressure;BME280_temperature;BME280_humidity;BME280_pressure;Samples;Min_cycle;Max_cycle;Signal;HPM_P1;HPM_P2
2022/03/01 00:01:29;;;;;;;35.47;15.30;;;8.20;45.80;;;;;;5068746;28;20075;-78
2022/03/01 00:03:55;;;;;;;14.23;8.10;;;8.50;45.30;;;;;;5067294;28;20084;-77
2022/03/01 00:06:21;;;;;;;13.57;7.18;;;8.50;44.60;;;;;;5073739;28;20028;-78
2022/03/01 00:08:46;;;;;;;11.32;6.47;;;7.70;44.90;;;;;;5057302;28;20496;-78
2022/03/01 00:11:13;;;;;;;12.23;7.22;;;7.80;45.30;;;;;;5054018;28;20064;-77
2022/03/01 00:13:39;;;;;;;32.50;16.45;;;7.80;45.60;;;;;;5073656;28;20016;-79
2022/03/01 00:16:06;;;;;;;12.48;7.90;;;8.10;45.30;;;;;;5071890;28;20025;-79
2022/03/01 00:18:32;;;;;;;22.35;12.52;;;7.80;45.50;;;;;;5070942;28;20484;-78
2022/03/01 00:20:57;;;;;;;14.40;8.82;;;7.80;45.60;;;;;;5072150;28;20024;-78
2022/03/01 00:23:23;;;;;;;28.52;16.65;;;7.60;45.70;;;;;;5071893;28;20428;-78
2022/03/01 00:25:49;;;;;;;13.85;7.93;;;7.30;45.60;;;;;;5071699;28;20550;-78
2022/03/01 00:28:14;;;;;;;9.77;6.55;;;7.20;46.00;;;;;;5072609;28;20031;-80
2022/03/01 00:30:40;;;;;;;11.38;6.75;;;6.10;47.40;;;;;;5051299;28;20487;-76
2022/03/01 00:33:05;;;;;;;13.57;8.60;;;5.80;48.80;;;;;;5068141;28;20040;-77
2022/03/01 00:35:31;;;;;;;12.05;7.13;;;6.50;48.40;;;;;;5051721;28;20060;-77
2022/03/01 00:37:57;;;;;;;25.42;13.02;;;6.90;47.60;;;;;;5051588;28;20472;-77
2022/03/01 00:40:23;;;;;;;31.08;15.95;;;7.20;47.40;;;;;;5053038;28;20106;-77
2022/03/01 00:42:49;;;;;;;15.55;8.48;;;7.10;47.10;;;;;;5052618;28;20058;-79
2022/03/01 00:45:14;;;;;;;13.43;7.50;;;7.40;46.60;;;;;;5051491;28;20468;-79
2022/03/01 00:47:40;;;;;;;19.65;7.68;;;7.50;46.00;;;;;;5060979;28;20158;-82
2022/03/01 00:50:06;;;;;;;15.85;8.23;;;7.70;46.20;;;;;;5071975;28;20349;-81
2022/03/01 00:52:32;;;;;;;11.65;7.40;;;7.90;45.40;;;;;;5071432;28;20048;-78
2022/03/01 00:54:58;;;;;;;13.60;7.25;;;8.10;45.40;;;;;;5072629;28;20074;-78
2022/03/01 00:57:24;;;;;;;10.75;6.68;;;8.40;44.70;;;;;;5071492;28;20059;-78
2022/03/01 00:59:49;;;;;;;10.45;6.45;;;8.50;44.20;;;;;;5072416;28;20085;-80
2022/03/01 01:02:15;;;;;;;9.93;6.32;;;8.50;43.90;;;;;;5071073;28;20553;-78
2022/03/01 01:04:41;;;;;;;10.02;6.13;;;8.20;44.50;;;;;;5071341;28;20028;-80
2022/03/01 01:07:06;;;;;;;9.65;6.32;;;8.20;44.40;;;;;;5071423;28;20016;-79
2022/03/01 01:09:32;;;;;;;10.40;5.93;;;8.20;44.30;;;;;;5070987;28;20056;-78
2022/03/01 01:11:58;;;;;;;11.32;7.03;;;8.10;44.50;;;;;;5072516;28;20037;-78
2022/03/01 01:14:24;;;;;;;14.18;7.90;;;8.50;44.40;;;;;;5072865;28;20020;-79
2022/03/01 01:16:49;;;;;;;11.65;6.70;;;8.90;43.90;;;;;;5070450;28;20024;-79
2022/03/01 01:19:15;;;;;;;10.10;5.97;;;8.30;43.90;;;;;;5068245;28;20029;-78
2022/03/01 01:24:25;;;;;;;11.27;6.28;;;6.70;47.00;;;;;;5067377;28;20035;-78
2022/03/01 01:26:51;;;;;;;15.73;7.18;;;7.30;46.40;;;;;;5072409;28;20107;-79
2022/03/01 01:29:16;;;;;;;12.20;6.45;;;8.00;45.30;;;;;;5055240;28;20021;-79
2022/03/01 01:31:42;;;;;;;14.52;7.07;;;8.40;45.30;;;;;;5071735;28;20407;-79
2022/03/01 01:34:08;;;;;;;11.05;6.70;;;8.40;44.80;;;;;;5056271;28;20029;-78
2022/03/01 01:36:33;;;;;;;11.90;5.80;;;8.20;43.90;;;;;;5056347;28;20041;-83
2022/03/01 01:39:00;;;;;;;13.73;6.53;;;7.50;44.60;;;;;;5056620;28;20032;-78
2022/03/01 01:41:26;;;;;;;11.98;6.22;;;7.50;45.60;;;;;;5056345;28;20522;-78
2022/03/01 01:43:52;;;;;;;10.63;6.45;;;7.60;45.60;;;;;;5054854;28;20017;-79
2022/03/01 01:46:19;;;;;;;11.25;6.18;;;7.50;45.20;;;;;;5056373;28;20025;-83
2022/03/01 01:48:44;;;;;;;8.90;5.53;;;7.00;46.50;;;;;;5055745;28;20079;-78
2022/03/01 01:51:11;;;;;;;9.20;5.55;;;7.00;46.00;;;;;;5055739;28;20468;-82
2022/03/01 01:53:37;;;;;;;10.20;5.88;;;7.30;45.50;;;;;;5071448;28;20115;-79
2022/03/01 01:56:03;;;;;;;8.88;5.50;;;7.20;45.30;;;;;;5062398;28;20547;-78
2022/03/01 01:58:29;;;;;;;10.55;5.97;;;6.60;47.30;;;;;;5074926;28;20074;-78
2022/03/01 02:00:54;;;;;;;10.55;6.18;;;7.10;47.00;;;;;;5076081;28;20051;-77
2022/03/01 02:03:20;;;;;;;12.30;6.00;;;7.10;46.20;;;;;;5075829;28;20032;-77
2022/03/01 02:05:46;;;;;;;15.48;6.72;;;6.80;46.30;;;;;;5074832;28;20035;-77
2022/03/01 02:08:11;;;;;;;12.60;6.88;;;7.00;47.00;;;;;;5053911;28;20464;-78
2022/03/01 02:10:37;;;;;;;11.10;6.80;;;7.30;45.80;;;;;;5055764;28;20079;-78
2022/03/01 02:13:03;;;;;;;9.65;5.45;;;7.50;46.20;;;;;;5065952;28;20430;-78
2022/03/01 02:15:28;;;;;;;10.55;5.88;;;7.90;45.50;;;;;;5074678;28;20025;-77
2022/03/01 02:17:54;;;;;;;9.40;5.25;;;8.00;45.20;;;;;;5075566;28;20092;-79
2022/03/01 02:20:23;;;;;;;11.02;6.40;;;7.50;46.60;;;;;;5075703;28;20032;-78
2022/03/01 02:22:54;;;;;;;10.77;6.20;;;7.40;46.10;;;;;;5074342;28;20177;-78
2022/03/01 02:25:21;;;;;;;10.00;5.53;;;7.50;46.40;;;;;;5074205;28;20026;-77
2022/03/01 02:27:46;;;;;;;9.48;5.75;;;7.70;46.50;;;;;;5075129;28;20039;-82
2022/03/01 02:30:12;;;;;;;9.57;5.80;;;7.60;46.00;;;;;;5075378;28;20383;-85
2022/03/01 02:32:39;;;;;;;10.45;5.95;;;7.60;46.20;;;;;;5064144;28;20043;-81
2022/03/01 02:35:06;;;;;;;12.95;6.70;;;7.70;45.80;;;;;;5054098;28;20021;-79
2022/03/01 02:37:32;;;;;;;10.15;5.80;;;7.70;46.20;;;;;;5054834;28;20141;-79
2022/03/01 02:39:58;;;;;;;10.77;5.55;;;7.00;47.40;;;;;;5054160;28;20460;-77
2022/03/01 02:42:27;;;;;;;11.63;6.70;;;6.40;48.80;;;;;;5053791;28;20067;-79
2022/03/01 02:44:52;;;;;;;10.63;6.20;;;6.40;48.50;;;;;;5053884;28;20174;-78
2022/03/01 02:47:18;;;;;;;9.82;5.88;;;6.20;48.70;;;;;;5053910;28;20108;-78
2022/03/01 02:49:49;;;;;;;10.00;5.95;;;6.40;48.00;;;;;;5053773;28;20116;-78
2022/03/01 02:52:15;;;;;;;11.48;6.57;;;6.40;48.30;;;;;;5055029;28;20033;-78
2022/03/01 02:54:40;;;;;;;12.07;7.28;;;6.50;47.60;;;;;;5053956;28;20039;-79
2022/03/01 02:57:06;;;;;;;13.05;6.57;;;6.60;48.00;;;;;;5053867;28;20044;-80
2022/03/01 02:59:32;;;;;;;11.40;6.45;;;6.70;46.30;;;;;;5054935;28;20029;-78
2022/03/01 03:01:58;;;;;;;13.32;6.60;;;6.40;46.90;;;;;;5054143;28;20064;-80
2022/03/01 03:04:25;;;;;;;12.50;6.43;;;6.20;47.10;;;;;;5054113;28;20532;-79
2022/03/01 03:06:51;;;;;;;14.23;6.85;;;6.50;47.50;;;;;;5053691;28;20025;-80
2022/03/01 03:09:17;;;;;;;10.55;6.30;;;6.40;46.80;;;;;;5053569;28;20041;-83
2022/03/01 03:11:44;;;;;;;10.18;5.85;;;6.60;47.60;;;;;;5054400;28;20052;-79
2022/03/01 03:14:10;;;;;;;13.07;6.55;;;6.60;46.70;;;;;;5054811;28;20017;-78
2022/03/01 03:16:36;;;;;;;10.57;6.28;;;6.60;47.00;;;;;;5058737;28;20016;-79
2022/03/01 03:19:02;;;;;;;11.90;6.43;;;6.10;47.40;;;;;;5073442;28;20024;-78
2022/03/01 03:21:29;;;;;;;11.82;6.43;;;6.50;47.40;;;;;;5073510;28;20470;-79
2022/03/01 03:23:55;;;;;;;15.38;7.22;;;6.80;46.60;;;;;;5074576;28;20103;-83
2022/03/01 03:26:21;;;;;;;12.52;6.45;;;7.10;45.90;;;;;;5073025;28;20032;-80
2022/03/01 03:28:47;;;;;;;13.23;6.55;;;7.30;45.30;;;;;;5056341;28;20017;-80
2022/03/01 03:31:12;;;;;;;11.30;6.05;;;7.10;45.90;;;;;;5053426;28;20483;-79
2022/03/01 03:33:39;;;;;;;9.55;5.50;;;6.90;45.70;;;;;;5054582;28;20094;-79
2022/03/01 03:36:05;;;;;;;9.52;5.47;;;6.40;46.10;;;;;;5053249;28;20117;-78
2022/03/01 03:38:31;;;;;;;8.65;4.93;;;6.50;46.10;;;;;;5053592;28;20100;-80
2022/03/01 03:40:57;;;;;;;8.55;5.25;;;6.70;46.40;;;;;;5053444;28;20029;-79
2022/03/01 03:43:23;;;;;;;9.93;5.70;;;6.90;45.60;;;;;;5054287;28;20051;-80
2022/03/01 03:45:54;;;;;;;10.75;5.63;;;7.20;45.20;;;;;;5053299;28;20372;-82
2022/03/01 03:48:20;;;;;;;10.57;5.40;;;7.20;44.80;;;;;;5052875;28;20040;-80
2022/03/01 03:50:46;;;;;;;9.40;5.30;;;7.00;45.00;;;;;;5052624;28;20029;-83
2022/03/01 03:53:12;;;;;;;11.00;6.15;;;7.30;44.80;;;;;;5054373;28;20392;-85
2022/03/01 03:55:37;;;;;;;11.60;5.30;;;7.50;44.50;;;;;;5054252;28;20508;-81
2022/03/01 03:58:03;;;;;;;9.30;5.13;;;7.60;44.10;;;;;;5052942;28;20380;-80
2022/03/01 04:00:30;;;;;;;8.93;5.47;;;7.30;44.50;;;;;;5054144;28;20021;-80
2022/03/01 04:02:56;;;;;;;11.15;4.70;;;7.30;44.50;;;;;;5053957;28;20033;-80
2022/03/01 04:05:21;;;;;;;9.18;5.03;;;7.30;44.50;;;;;;5062377;28;20027;-80
2022/03/01 04:07:48;;;;;;;9.35;4.80;;;7.40;44.20;;;;;;5072498;28;20028;-80
2022/03/01 04:10:15;;;;;;;10.45;5.50;;;7.60;44.30;;;;;;5073834;28;20020;-84
2022/03/01 04:12:40;;;;;;;9.48;5.15;;;7.80;44.10;;;;;;5073310;28;20059;-84
2022/03/01 04:15:08;;;;;;;8.32;5.05;;;7.80;44.70;;;;;;5072514;28;20137;-82
2022/03/01 04:17:34;;;;;;;8.60;5.00;;;7.60;45.40;;;;;;5072723;28;20029;-81
2022/03/01 04:19:59;;;;;;;10.57;5.38;;;7.70;45.50;;;;;;5073787;28;20029;-80
2022/03/01 04:22:26;;;;;;;9.60;4.90;;;7.90;45.20;;;;;;5072640;28;20024;-81
2022/03/01 04:24:53;;;;;;;8.73;5.00;;;7.80;45.80;;;;;;5054356;28;20036;-82
2022/03/01 04:27:18;;;;;;;11.30;6.03;;;7.90;45.40;;;;;;5052587;28;20036;-84
2022/03/01 04:29:45;;;;;;;30.70;13.85;;;7.90;44.60;;;;;;5053648;28;20032;-84
2022/03/01 04:32:11;;;;;;;25.17;12.80;;;7.40;45.40;;;;;;5052237;28;20514;-81
2022/03/01 04:34:38;;;;;;;33.45;16.25;;;7.30;45.90;;;;;;5052787;28;20056;-81
2022/03/01 04:37:04;;;;;;;21.20;11.25;;;7.10;45.80;;;;;;5052508;28;20055;-82
2022/03/01 04:39:30;;;;;;;15.10;8.50;;;6.90;46.70;;;;;;5053805;28;20025;-83
2022/03/01 04:41:56;;;;;;;20.65;9.45;;;7.00;46.90;;;;;;5052274;28;20056;-82
2022/03/01 04:44:22;;;;;;;13.52;7.05;;;7.30;46.50;;;;;;5053447;28;20071;-83
2022/03/01 04:46:48;;;;;;;18.30;8.68;;;7.20;46.50;;;;;;5052100;28;20032;-84
2022/03/01 04:49:14;;;;;;;14.18;7.05;;;7.10;46.70;;;;;;5052253;28;20022;-83
2022/03/01 04:51:40;;;;;;;14.30;7.60;;;7.20;46.50;;;;;;5052262;28;20040;-86
2022/03/01 04:54:07;;;;;;;15.35;9.00;;;7.20;46.10;;;;;;5069780;28;20031;-84
2022/03/01 04:56:33;;;;;;;14.52;8.13;;;7.10;45.80;;;;;;5072804;28;20043;-80
2022/03/01 04:58:58;;;;;;;16.50;8.05;;;6.40;47.20;;;;;;5072354;28;20021;-84
2022/03/01 05:01:24;;;;;;;14.43;7.60;;;5.90;48.50;;;;;;5072629;28;20028;-82
2022/03/01 05:03:50;;;;;;;14.30;6.97;;;5.70;48.70;;;;;;5062029;28;20028;-82
2022/03/01 05:06:16;;;;;;;12.45;6.88;;;5.80;48.60;;;;;;5056596;28;20471;-82
2022/03/01 05:08:41;;;;;;;10.15;5.72;;;5.90;49.40;;;;;;5057348;28;20052;-83
2022/03/01 05:11:07;;;;;;;15.73;7.40;;;6.00;49.20;;;;;;5074654;28;20064;-86
2022/03/01 05:13:33;;;;;;;12.95;6.45;;;6.10;48.20;;;;;;5076659;28;20159;-81
2022/03/01 05:15:58;;;;;;;10.80;6.72;;;6.20;48.10;;;;;;5076290;28;20115;-83
2022/03/01 05:18:24;;;;;;;12.25;6.60;;;6.10;48.80;;;;;;5076477;28;20489;-85
2022/03/01 05:20:51;;;;;;;13.55;7.10;;;6.10;49.40;;;;;;5076551;28;20593;-84
2022/03/01 05:23:18;;;;;;;12.20;6.50;;;5.90;48.40;;;;;;5076606;28;20051;-84
2022/03/01 05:25:44;;;;;;;13.52;6.18;;;5.70;49.30;;;;;;5070071;28;20053;-87
2022/03/01 05:28:10;;;;;;;11.90;6.78;;;5.50;50.00;;;;;;5056289;28;20036;-86
2022/03/01 05:30:36;;;;;;;10.85;6.07;;;5.40;50.40;;;;;;5056901;28;20017;-84
2022/03/01 05:33:02;;;;;;;10.65;5.78;;;5.60;50.40;;;;;;5056285;28;20130;-89
2022/03/01 05:35:30;;;;;;;10.55;6.00;;;6.00;49.70;;;;;;5055794;28;20028;-83
2022/03/01 05:37:57;;;;;;;11.70;6.03;;;6.30;49.00;;;;;;5056199;28;20033;-83
2022/03/01 05:40:27;;;;;;;11.55;6.53;;;6.50;48.60;;;;;;5057299;28;20021;-82
2022/03/01 05:42:53;;;;;;;60.53;21.35;;;6.50;49.10;;;;;;5075751;28;20033;-82
2022/03/01 05:45:20;;;;;;;60.03;23.38;;;6.70;48.60;;;;;;5076304;28;20119;-86
2022/03/01 05:47:46;;;;;;;63.38;23.83;;;6.90;47.90;;;;;;5089807;28;20020;-81
2022/03/01 05:50:17;;;;;;;74.40;26.35;;;6.80;48.30;;;;;;5096060;28;20035;-83
2022/03/01 05:52:43;;;;;;;19.33;9.15;;;6.90;48.40;;;;;;5096312;28;20067;-83
2022/03/01 05:55:12;;;;;;;19.33;9.20;;;6.90;48.20;;;;;;5096064;28;20105;-82
2022/03/01 05:57:39;;;;;;;27.27;13.35;;;6.70;48.90;;;;;;5096057;28;20036;-82
2022/03/01 06:00:08;;;;;;;26.30;12.25;;;6.80;48.90;;;;;;5095785;28;20045;-81
2022/03/01 06:02:34;;;;;;;35.60;17.35;;;6.80;49.20;;;;;;5095762;28;20080;-84
2022/03/01 06:04:59;;;;;;;29.80;15.70;;;6.60;49.00;;;;;;5095343;28;20028;-85
2022/03/01 06:07:25;;;;;;;18.92;9.65;;;6.70;49.20;;;;;;5077519;28;20055;-82
2022/03/01 06:09:51;;;;;;;16.85;9.50;;;6.80;48.80;;;;;;5074138;28;20139;-85
2022/03/01 06:12:17;;;;;;;17.48;9.27;;;6.80;48.80;;;;;;5070379;28;20190;-83
2022/03/01 06:14:43;;;;;;;16.17;8.90;;;7.00;48.50;;;;;;5067809;28;20025;-85
2022/03/01 06:17:09;;;;;;;12.75;7.10;;;7.30;47.90;;;;;;5055615;28;20029;-84
2022/03/01 06:19:35;;;;;;;11.65;6.35;;;7.60;47.90;;;;;;5068391;28;20063;-85
2022/03/01 06:22:05;;;;;;;13.23;7.85;;;7.90;48.10;;;;;;5058977;28;20025;-84
2022/03/01 06:24:30;;;;;;;18.40;10.57;;;8.10;48.00;;;;;;5055157;28;20025;-85
2022/03/01 06:26:56;;;;;;;15.48;8.10;;;8.00;48.50;;;;;;5054798;28;20129;-84
2022/03/01 06:29:22;;;;;;;12.13;7.63;;;7.70;48.40;;;;;;5055123;28;20025;-88
2022/03/01 06:31:48;;;;;;;11.57;6.50;;;7.90;48.70;;;;;;5054993;28;20074;-85
2022/03/01 06:34:13;;;;;;;11.13;6.35;;;8.20;47.90;;;;;;5054945;28;20120;-83
2022/03/01 06:36:39;;;;;;;13.40;7.25;;;8.50;47.50;;;;;;5054869;28;20071;-84
2022/03/01 06:39:05;;;;;;;11.15;6.95;;;8.70;46.90;;;;;;5064207;28;20459;-85
2022/03/01 06:41:30;;;;;;;14.75;9.20;;;8.90;46.70;;;;;;5066299;28;20024;-83
2022/03/01 06:43:56;;;;;;;13.40;8.07;;;8.70;46.50;;;;;;5055897;28;20056;-86
2022/03/01 06:46:22;;;;;;;15.70;9.77;;;8.70;46.40;;;;;;5054572;28;20060;-86
2022/03/01 06:48:47;;;;;;;20.90;13.23;;;8.70;46.60;;;;;;5054640;28;20021;-84
2022/03/01 06:51:13;;;;;;;12.90;6.47;;;9.00;46.00;;;;;;5055521;28;20037;-85
2022/03/01 06:53:39;;;;;;;15.48;7.28;;;8.60;46.30;;;;;;5054547;28;20025;-85
2022/03/01 06:56:05;;;;;;;11.55;6.50;;;8.40;46.30;;;;;;5071114;28;20034;-84
2022/03/01 06:58:31;;;;;;;14.95;8.15;;;8.50;46.50;;;;;;5074645;28;20032;-84
2022/03/01 07:01:00;;;;;;;11.52;6.05;;;8.70;46.20;;;;;;5074262;28;20459;-83
2022/03/01 07:03:26;;;;;;;12.13;6.65;;;8.90;45.50;;;;;;5074810;28;20041;-84
2022/03/01 07:05:51;;;;;;;9.75;5.50;;;9.10;44.70;;;;;;5078542;28;20050;-82
2022/03/01 07:08:20;;;;;;;10.60;5.70;;;9.20;44.50;;;;;;5061978;28;20053;-84
2022/03/01 07:10:46;;;;;;;10.35;5.97;;;9.50;44.00;;;;;;5053734;28;20499;-83
2022/03/01 07:13:12;;;;;;;10.18;5.50;;;9.60;42.20;;;;;;5053573;28;20424;-83
2022/03/01 07:15:38;;;;;;;9.57;5.60;;;9.30;42.40;;;;;;5053665;28;20051;-82
2022/03/01 07:18:04;;;;;;;10.15;5.47;;;9.70;42.20;;;;;;5052865;28;20035;-83
2022/03/01 07:20:30;;;;;;;9.48;4.80;;;9.90;42.60;;;;;;5052819;28;20102;-82
2022/03/01 07:22:56;;;;;;;9.18;4.90;;;10.30;41.60;;;;;;5053072;28;20028;-82
2022/03/01 07:25:22;;;;;;;10.70;5.00;;;10.50;41.40;;;;;;5051806;28;20079;-82
2022/03/01 07:27:50;;;;;;;7.93;4.57;;;11.00;40.80;;;;;;5084104;28;20032;-82
2022/03/01 07:30:22;;;;;;;8.52;4.53;;;11.40;40.40;;;;;;5093940;28;20114;-84
2022/03/01 07:32:48;;;;;;;9.00;4.40;;;11.00;39.60;;;;;;5094222;28;20032;-81
2022/03/01 07:35:15;;;;;;;7.68;4.47;;;10.60;40.60;;;;;;5093754;28;20024;-81
2022/03/01 07:37:41;;;;;;;6.25;3.80;;;10.30;40.60;;;;;;5094794;28;20025;-80
2022/03/01 07:40:11;;;;;;;6.95;4.05;;;10.80;39.50;;;;;;5093589;28;20020;-80
2022/03/01 07:42:38;;;;;;;6.35;3.58;;;10.70;39.00;;;;;;5094707;28;20479;-81
2022/03/01 07:45:05;;;;;;;6.97;3.50;;;10.60;40.20;;;;;;5094621;28;20052;-82
2022/03/01 07:47:31;;;;;;;5.97;3.33;;;10.40;39.60;;;;;;5094350;28;20107;-79
2022/03/01 07:49:57;;;;;;;6.82;3.15;;;9.70;39.50;;;;;;5093804;28;20031;-81
2022/03/01 07:52:23;;;;;;;5.88;2.72;;;9.70;39.30;;;;;;5093387;28;20044;-79
2022/03/01 07:54:49;;;;;;;7.20;3.17;;;10.10;39.20;;;;;;5093566;28;20459;-84
2022/03/01 07:57:16;;;;;;;7.00;3.70;;;10.10;38.80;;;;;;5094474;28;20031;-81
2022/03/01 07:59:41;;;;;;;6.88;3.30;;;9.70;39.40;;;;;;5094769;28;20056;-80
2022/03/01 08:02:07;;;;;;;6.20;3.40;;;10.00;39.10;;;;;;5094374;28;20056;-79
2022/03/01 08:04:33;;;;;;;5.53;3.13;;;10.80;38.50;;;;;;5094565;28;20065;-83
2022/03/01 08:06:59;;;;;;;5.25;2.90;;;11.20;38.50;;;;;;5093014;28;20032;-85
2022/03/01 08:09:24;;;;;;;5.72;3.05;;;11.50;37.10;;;;;;5093980;28;20504;-81
2022/03/01 08:11:52;;;;;;;5.07;3.20;;;11.70;37.30;;;;;;5093368;28;20059;-84
2022/03/01 08:14:17;;;;;;;5.57;2.90;;;11.80;37.50;;;;;;5093954;28;20032;-87
2022/03/01 08:16:43;;;;;;;5.72;3.33;;;11.50;37.00;;;;;;5092699;28;20153;-85
2022/03/01 08:19:09;;;;;;;5.22;2.78;;;10.70;37.10;;;;;;5092463;28;20020;-85
2022/03/01 08:21:34;;;;;;;7.03;2.95;;;10.40;37.60;;;;;;5092675;28;20024;-83
2022/03/01 08:24:01;;;;;;;5.53;3.00;;;10.70;37.10;;;;;;5092544;28;20020;-84
2022/03/01 08:26:26;;;;;;;5.90;3.20;;;11.60;36.50;;;;;;5092437;28;20368;-81
2022/03/01 08:28:53;;;;;;;6.78;2.85;;;12.60;36.60;;;;;;5091997;28;20045;-81
2022/03/01 08:31:18;;;;;;;4.85;2.70;;;13.30;35.00;;;;;;5090450;28;20323;-81
2022/03/01 08:33:45;;;;;;;4.82;2.40;;;14.00;35.00;;;;;;5091627;28;20051;-83
2022/03/01 08:36:13;;;;;;;5.22;3.05;;;15.00;33.50;;;;;;5090394;28;20378;-84
2022/03/01 08:38:39;;;;;;;5.72;2.70;;;15.20;33.20;;;;;;5090629;28;20486;-84
2022/03/01 08:41:05;;;;;;;4.57;2.40;;;15.40;32.20;;;;;;5091831;28;20543;-82
2022/03/01 08:43:31;;;;;;;7.20;2.95;;;15.70;32.60;;;;;;5090234;28;20032;-81
2022/03/01 08:45:56;;;;;;;5.88;2.95;;;15.40;32.80;;;;;;5092264;28;20032;-86
2022/03/01 08:48:22;;;;;;;5.47;3.10;;;15.10;33.30;;;;;;5093544;28;20095;-85
2022/03/01 08:50:48;;;;;;;4.90;2.63;;;15.50;32.90;;;;;;5092070;28;20078;-82
2022/03/01 08:53:15;;;;;;;4.97;2.90;;;15.00;32.50;;;;;;5093430;28;20035;-84
2022/03/01 08:55:40;;;;;;;5.60;2.95;;;14.90;33.40;;;;;;5091998;28;20024;-81
2022/03/01 08:58:06;;;;;;;4.70;2.50;;;14.60;33.40;;;;;;5093638;28;20030;-86
2022/03/01 09:00:33;;;;;;;7.30;3.00;;;15.20;33.20;;;;;;5093233;28;20024;-83
2022/03/01 09:02:59;;;;;;;5.45;3.10;;;15.20;32.10;;;;;;5092518;28;20406;-84
2022/03/01 09:05:26;;;;;;;5.65;2.90;;;15.70;32.10;;;;;;5092474;28;20024;-83
2022/03/01 09:07:52;;;;;;;4.72;2.88;;;16.80;31.90;;;;;;5091908;28;20074;-84
2022/03/01 09:10:21;;;;;;;6.00;2.83;;;17.40;31.90;;;;;;5092305;28;20020;-85
2022/03/01 09:12:52;;;;;;;5.67;2.80;;;17.50;30.80;;;;;;5092151;28;20116;-80
2022/03/01 09:15:18;;;;;;;6.80;2.83;;;16.80;31.20;;;;;;5093599;28;20020;-83
2022/03/01 09:17:45;;;;;;;5.97;3.00;;;15.70;31.10;;;;;;5092665;28;20067;-85
2022/03/01 09:20:11;;;;;;;5.53;2.70;;;14.20;31.80;;;;;;5092474;28;20024;-83
2022/03/01 09:22:37;;;;;;;4.50;2.75;;;13.60;33.00;;;;;;5092180;28;20498;-79
2022/03/01 09:25:04;;;;;;;6.32;2.70;;;13.70;33.00;;;;;;5092125;28;20477;-87
2022/03/01 09:27:30;;;;;;;5.65;3.00;;;13.80;33.60;;;;;;5092152;28;20024;-81
2022/03/01 09:29:56;;;;;;;6.20;3.30;;;15.00;32.40;;;;;;5093478;28;20145;-80
2022/03/01 09:32:22;;;;;;;6.78;3.20;;;14.70;32.30;;;;;;5093262;28;20107;-84
2022/03/01 09:34:48;;;;;;;4.97;2.88;;;15.50;32.10;;;;;;5092149;28;20123;-85
2022/03/01 09:37:14;;;;;;;5.97;2.60;;;15.70;32.00;;;;;;5092361;28;20047;-86
2022/03/01 09:39:40;;;;;;;5.53;3.30;;;16.50;30.90;;;;;;5093218;28;20024;-84
2022/03/01 09:42:08;;;;;;;6.05;3.13;;;16.40;31.30;;;;;;5092937;28;20075;-86
2022/03/01 09:44:34;;;;;;;5.80;2.90;;;16.20;31.30;;;;;;5093246;28;20035;-82
2022/03/01 09:47:00;;;;;;;5.30;2.72;;;17.20;31.00;;;;;;5091625;28;20062;-82
2022/03/01 09:49:26;;;;;;;6.55;3.10;;;17.80;29.90;;;;;;5093588;28;20044;-85
2022/03/01 09:51:51;;;;;;;6.22;3.17;;;19.10;29.60;;;;;;5095967;28;20071;-84
2022/03/01 09:54:17;;;;;;;5.13;3.20;;;20.30;29.20;;;;;;5096361;28;20017;-90
2022/03/01 09:56:44;;;;;;;5.43;2.80;;;20.70;29.10;;;;;;5095185;28;20024;-85
2022/03/01 09:59:09;;;;;;;4.93;2.90;;;19.80;29.20;;;;;;5095334;28;20020;-88
2022/03/01 10:01:35;;;;;;;5.40;3.08;;;18.10;29.50;;;;;;5095332;28;20036;-81
2022/03/01 10:04:08;;;;;;;6.03;3.17;;;17.50;29.90;;;;;;5096495;28;20038;-85
2022/03/01 10:06:41;;;;;;;5.10;2.80;;;16.90;30.30;;;;;;5095355;28;20551;-84
2022/03/01 10:09:13;;;;;;;4.82;2.40;;;16.70;30.10;;;;;;5095190;28;20437;-87
2022/03/01 10:11:38;;;;;;;6.13;3.35;;;17.30;30.30;;;;;;5094916;28;20047;-85
2022/03/01 10:14:04;;;;;;;6.38;3.10;;;19.00;29.60;;;;;;5095150;28;20034;-83
2022/03/01 10:16:44;;;;;;;4.75;3.03;;;20.40;29.30;;;;;;5095110;28;20471;-83
2022/03/01 10:19:18;;;;;;;4.57;2.90;;;21.00;29.40;;;;;;5095143;28;20032;-83
2022/03/01 10:21:49;;;;;;;5.57;2.90;;;21.70;29.00;;;;;;5094841;28;20039;-89
2022/03/01 10:24:19;;;;;;;4.47;2.50;;;22.80;28.60;;;;;;5095066;28;20024;-86
2022/03/01 10:26:44;;;;;;;5.53;2.88;;;23.40;28.10;;;;;;5095938;28;20442;-84
2022/03/01 10:29:10;;;;;;;5.68;3.28;;;23.50;28.40;;;;;;5094880;28;20585;-87
2022/03/01 10:31:36;;;;;;;4.45;2.60;;;23.40;28.10;;;;;;5095770;28;20042;-87
2022/03/01 10:34:04;;;;;;;4.63;2.65;;;22.70;28.20;;;;;;5094751;28;20405;-87
2022/03/01 10:36:32;;;;;;;4.15;2.47;;;22.80;28.10;;;;;;5094947;28;20032;-83
2022/03/01 10:39:04;;;;;;;4.40;2.40;;;23.00;28.00;;;;;;5095629;28;20024;-84
2022/03/01 10:41:32;;;;;;;5.85;2.40;;;21.70;27.90;;;;;;5095098;28;20028;-85
2022/03/01 10:43:59;;;;;;;4.30;2.53;;;20.90;27.60;;;;;;5094808;28;20115;-84
2022/03/01 10:46:30;;;;;;;4.35;2.50;;;20.30;28.40;;;;;;5094450;28;20153;-87
2022/03/01 10:49:21;;;;;;;;;;;21.50;27.20;;;;;;5095990;28;20394;-86
2022/03/01 10:51:52;;;;;;;4.88;2.88;;;22.60;27.80;;;;;;5095024;28;19916;-83
2022/03/01 10:54:28;;;;;;;4.53;2.70;;;22.90;27.70;;;;;;5094393;28;20016;-84
2022/03/01 10:56:55;;;;;;;5.18;2.60;;;24.00;27.20;;;;;;5094358;28;20402;-83
2022/03/01 10:59:24;;;;;;;4.78;2.63;;;22.50;27.20;;;;;;5094282;28;20077;-88
2022/03/01 11:01:51;;;;;;;5.40;2.50;;;22.70;27.50;;;;;;5094437;28;20032;-82
2022/03/01 11:04:17;;;;;;;7.63;3.90;;;23.70;26.90;;;;;;5094248;28;20024;-85
2022/03/01 11:06:46;;;;;;;5.35;2.67;;;24.40;26.70;;;;;;5094306;28;20024;-86
2022/03/01 11:09:12;;;;;;;5.20;2.80;;;25.50;26.90;;;;;;5093869;28;20082;-82
2022/03/01 11:11:40;;;;;;;5.25;2.97;;;25.40;27.10;;;;;;5093958;28;20385;-86
2022/03/01 11:14:06;;;;;;;5.15;3.03;;;23.30;27.40;;;;;;5094003;28;20024;-89
2022/03/01 11:16:50;;;;;;;5.05;3.10;;;22.50;27.40;;;;;;5093957;28;20028;-83
2022/03/01 11:19:50;;;;;;;6.57;3.20;;;22.10;27.70;;;;;;5093968;28;20020;-86
2022/03/01 11:22:22;;;;;;;5.30;3.13;;;21.70;27.50;;;;;;5093676;28;20107;-88
2022/03/01 11:24:49;;;;;;;5.32;2.97;;;20.90;27.20;;;;;;5093954;28;20694;-87
2022/03/01 11:27:19;;;;;;;5.75;3.17;;;19.40;28.00;;;;;;5093591;28;20027;-83
2022/03/01 11:29:45;;;;;;;;;;;17.20;29.10;;;;;;5095187;28;20028;-85
2022/03/01 11:32:14;;;;;;;7.88;3.00;;;15.20;29.40;;;;;;5094790;28;19916;-83
2022/03/01 11:34:40;;;;;;;5.03;3.00;;;14.20;31.50;;;;;;5095025;28;20030;-89
2022/03/01 11:37:14;;;;;;;5.30;3.00;;;14.00;29.40;;;;;;5094119;28;20471;-87
2022/03/01 11:39:40;;;;;;;5.38;2.85;;;14.10;29.80;;;;;;5093477;28;20028;-89
2022/03/01 11:42:08;;;;;;;5.88;3.00;;;14.60;30.00;;;;;;5093295;28;20020;-89
2022/03/01 11:44:42;;;;;;;5.35;2.85;;;14.30;29.80;;;;;;5094550;28;20379;-81
2022/03/01 11:47:21;;;;;;;4.90;2.70;;;13.70;29.80;;;;;;5093531;28;20118;-86
2022/03/01 11:49:47;;;;;;;4.70;2.60;;;13.10;30.70;;;;;;5093578;28;20390;-89
2022/03/01 11:52:25;;;;;;;4.65;2.53;;;13.40;30.70;;;;;;5093190;28;20036;-85
2022/03/01 11:54:57;;;;;;;5.65;2.78;;;13.30;29.90;;;;;;5094158;28;20032;-84
2022/03/01 11:57:27;;;;;;;4.25;2.50;;;12.90;29.90;;;;;;5093418;28;20028;-85
2022/03/01 11:59:55;;;;;;;;;;;13.40;29.50;;;;;;5093735;28;20023;-83
2022/03/01 12:02:24;;;;;;;5.43;2.60;;;14.00;29.50;;;;;;5093400;28;20378;-86
2022/03/01 12:04:52;;;;;;;5.38;2.45;;;14.00;29.10;;;;;;5093250;28;20446;-85
2022/03/01 12:07:20;;;;;;;5.57;2.58;;;14.10;28.30;;;;;;5093122;28;20118;-82
2022/03/01 12:09:57;;;;;;;4.55;2.63;;;14.30;29.10;;;;;;5093939;28;20127;-84
2022/03/01 12:12:32;;;;;;;4.22;2.75;;;14.60;28.50;;;;;;5092535;28;20140;-88
2022/03/01 12:14:58;;;;;;;5.20;2.45;;;14.10;29.20;;;;;;5092961;28;20024;-89
2022/03/01 12:17:24;;;;;;;4.93;2.55;;;14.10;28.80;;;;;;5094071;28;20428;-87
2022/03/01 12:19:59;;;;;;;4.93;2.60;;;14.60;28.90;;;;;;5093795;28;20028;-85
2022/03/01 12:22:25;;;;;;;4.95;2.63;;;13.90;29.10;;;;;;5092938;28;20025;-89
2022/03/01 12:24:51;;;;;;;5.68;3.00;;;13.50;30.00;;;;;;5092471;28;20020;-83
2022/03/01 12:27:18;;;;;;;5.20;2.92;;;13.20;29.40;;;;;;5093694;28;20405;-83
2022/03/01 12:29:48;;;;;;;6.93;3.10;;;13.70;29.30;;;;;;5092829;28;20462;-83
2022/03/01 12:32:13;;;;;;;5.40;2.67;;;14.20;29.20;;;;;;5092719;28;20032;-82
2022/03/01 12:34:42;;;;;;;6.05;2.90;;;14.20;29.30;;;;;;5092906;28;20028;-82
2022/03/01 12:37:10;;;;;;;4.68;2.40;;;14.30;29.20;;;;;;5093935;28;20459;-89
2022/03/01 12:39:37;;;;;;;6.32;2.83;;;14.50;29.70;;;;;;5092672;28;20027;-82
2022/03/01 12:42:06;;;;;;;5.40;3.00;;;14.60;29.00;;;;;;5092102;28;20394;-87
2022/03/01 12:44:33;;;;;;;5.82;2.80;;;14.60;29.40;;;;;;5092505;28;20390;-81
2022/03/01 12:47:00;;;;;;;5.72;3.03;;;14.50;29.10;;;;;;5093579;28;20024;-86
2022/03/01 12:49:26;;;;;;;7.65;3.38;;;15.00;29.20;;;;;;5092135;28;20425;-88